sensor_id;sensor_type;location;lat;lon;timestamp;P1;durP1;ratioP1;P2;durP2;ratioP2
72891;SDS011;61032;50.782;6.818;2024-02-15T00:00:19;2.72;;;1.25;;
72891;SDS011;61032;50.782;6.818;2024-02-15T00:01:21;3.40;;;1.20;;
72891;SDS011;61032;50.782;6.818;2024-02-15T00:02:22;4.25;;;1.30;;
72891;SDS011;61032;50.782;6.818;2024-02-15T00:03:23;2.50;;;0.90;;
72891;SDS011;61032;50.782;6.818;2024-02-15T00:04:23;2.25;;;1.20;;
72891;SDS011;61032;50.782;6.818;2024-02-15T00:05:24;3.45;;;0.70;;
72891;SDS011;61032;50.782;6.818;2024-02-15T00:06:24;5.03;;;1.02;;
72891;SDS011;61032;50.782;6.818;2024-02-15T00:07:25;2.15;;;0.90;;
72891;SDS011;61032;50.782;6.818;2024-02-15T00:08:26;1.65;;;0.95;;
72891;SDS011;61032;50.782;6.818;2024-02-15T00:09:29;2.22;;;0.80;;
72891;SDS011;61032;50.782;6.818;2024-02-15T00:10:29;3.97;;;1.10;;
72891;SDS011;61032;50.782;6.818;2024-02-15T00:11:30;1.88;;;1.00;;
72891;SDS011;61032;50.782;6.818;2024-02-15T00:12:30;4.05;;;1.42;;
72891;SDS011;61032;50.782;6.818;2024-02-15T00:13:30;2.92;;;1.10;;
72891;SDS011;61032;50.782;6.818;2024-02-15T00:14:33;2.10;;;0.75;;
72891;SDS011;61032;50.782;6.818;2024-02-15T00:15:33;2.38;;;1.30;;
72891;SDS011;61032;50.782;6.818;2024-02-15T00:16:34;4.63;;;1.30;;
72891;SDS011;61032;50.782;6.818;2024-02-15T00:17:35;2.92;;;1.10;;
72891;SDS011;61032;50.782;6.818;2024-02-15T00:18:36;3.42;;;1.00;;
72891;SDS011;61032;50.782;6.818;2024-02-15T00:19:37;2.13;;;0.98;;
72891;SDS011;61032;50.782;6.818;2024-02-15T00:20:38;2.72;;;0.95;;
72891;SDS011;61032;50.782;6.818;2024-02-15T00:21:42;2.78;;;0.90;;
72891;SDS011;61032;50.782;6.818;2024-02-15T00:22:43;2.95;;;1.10;;
72891;SDS011;61032;50.782;6.818;2024-02-15T00:23:45;2.72;;;1.20;;
72891;SDS011;61032;50.782;6.818;2024-02-15T00:24:45;3.72;;;1.00;;
72891;SDS011;61032;50.782;6.818;2024-02-15T00:25:46;4.07;;;1.35;;
72891;SDS011;61032;50.782;6.818;2024-02-15T00:26:47;3.10;;;1.40;;
72891;SDS011;61032;50.782;6.818;2024-02-15T00:27:47;2.60;;;1.00;;
72891;SDS011;61032;50.782;6.818;2024-02-15T00:28:48;2.92;;;1.38;;
72891;SDS011;61032;50.782;6.818;2024-02-15T00:29:49;2.67;;;1.20;;
72891;SDS011;61032;50.782;6.818;2024-02-15T00:30:50;2.97;;;0.80;;
72891;SDS011;61032;50.782;6.818;2024-02-15T00:31:50;2.85;;;1.00;;
72891;SDS011;61032;50.782;6.818;2024-02-15T00:32:50;3.00;;;1.85;;
72891;SDS011;61032;50.782;6.818;2024-02-15T00:33:51;1.98;;;1.27;;
72891;SDS011;61032;50.782;6.818;2024-02-15T00:34:51;4.20;;;1.35;;
72891;SDS011;61032;50.782;6.818;2024-02-15T00:35:51;4.07;;;1.08;;
72891;SDS011;61032;50.782;6.818;2024-02-15T00:36:52;1.40;;;0.70;;
72891;SDS011;61032;50.782;6.818;2024-02-15T00:37:53;1.20;;;0.60;;
72891;SDS011;61032;50.782;6.818;2024-02-15T00:38:53;4.35;;;1.13;;
72891;SDS011;61032;50.782;6.818;2024-02-15T00:39:53;3.75;;;0.80;;
72891;SDS011;61032;50.782;6.818;2024-02-15T00:40:54;1.98;;;1.05;;
72891;SDS011;61032;50.782;6.818;2024-02-15T00:41:54;3.35;;;1.70;;
72891;SDS011;61032;50.782;6.818;2024-02-15T00:42:55;2.75;;;1.50;;
72891;SDS011;61032;50.782;6.818;2024-02-15T00:43:55;3.67;;;1.77;;
72891;SDS011;61032;50.782;6.818;2024-02-15T00:44:56;4.30;;;1.80;;
72891;SDS011;61032;50.782;6.818;2024-02-15T00:45:56;1.65;;;1.13;;
72891;SDS011;61032;50.782;6.818;2024-02-15T00:46:56;3.58;;;1.70;;
72891;SDS011;61032;50.782;6.818;2024-02-15T00:47:57;5.97;;;1.30;;
72891;SDS011;61032;50.782;6.818;2024-02-15T00:48:57;3.95;;;1.55;;
72891;SDS011;61032;50.782;6.818;2024-02-15T00:49:59;3.75;;;1.38;;
72891;SDS011;61032;50.782;6.818;2024-02-15T00:51:00;2.13;;;1.15;;
72891;SDS011;61032;50.782;6.818;2024-02-15T00:52:00;2.50;;;1.23;;
72891;SDS011;61032;50.782;6.818;2024-02-15T00:53:00;5.32;;;1.08;;
72891;SDS011;61032;50.782;6.818;2024-02-15T00:54:01;2.10;;;1.30;;
72891;SDS011;61032;50.782;6.818;2024-02-15T00:55:03;2.47;;;0.90;;
72891;SDS011;61032;50.782;6.818;2024-02-15T00:56:03;2.83;;;1.17;;
72891;SDS011;61032;50.782;6.818;2024-02-15T00:57:04;3.47;;;1.08;;
72891;SDS011;61032;50.782;6.818;2024-02-15T00:58:05;4.30;;;1.08;;
72891;SDS011;61032;50.782;6.818;2024-02-15T00:59:05;1.85;;;0.73;;
72891;SDS011;61032;50.782;6.818;2024-02-15T01:00:06;4.43;;;1.20;;
72891;SDS011;61032;50.782;6.818;2024-02-15T01:01:09;1.58;;;1.17;;
72891;SDS011;61032;50.782;6.818;2024-02-15T01:02:10;2.40;;;0.80;;
72891;SDS011;61032;50.782;6.818;2024-02-15T01:03:12;1.45;;;0.77;;
72891;SDS011;61032;50.782;6.818;2024-02-15T01:04:13;1.52;;;0.95;;
72891;SDS011;61032;50.782;6.818;2024-02-15T01:05:13;1.80;;;0.77;;
72891;SDS011;61032;50.782;6.818;2024-02-15T01:07:15;2.63;;;0.93;;
72891;SDS011;61032;50.782;6.818;2024-02-15T01:08:16;2.28;;;1.38;;
72891;SDS011;61032;50.782;6.818;2024-02-15T01:09:16;2.08;;;0.90;;
72891;SDS011;61032;50.782;6.818;2024-02-15T01:10:16;3.33;;;1.05;;
72891;SDS011;61032;50.782;6.818;2024-02-15T01:11:17;5.65;;;1.30;;
72891;SDS011;61032;50.782;6.818;2024-02-15T01:12:17;2.75;;;0.85;;
72891;SDS011;61032;50.782;6.818;2024-02-15T01:13:18;3.42;;;1.02;;
72891;SDS011;61032;50.782;6.818;2024-02-15T01:14:18;1.60;;;1.05;;
72891;SDS011;61032;50.782;6.818;2024-02-15T01:15:19;1.75;;;0.80;;
72891;SDS011;61032;50.782;6.818;2024-02-15T01:16:20;1.98;;;0.63;;
72891;SDS011;61032;50.782;6.818;2024-02-15T01:17:24;2.03;;;0.80;;
72891;SDS011;61032;50.782;6.818;2024-02-15T01:18:25;1.60;;;0.90;;
72891;SDS011;61032;50.782;6.818;2024-02-15T01:19:27;2.00;;;0.82;;
72891;SDS011;61032;50.782;6.818;2024-02-15T01:20:27;1.88;;;1.23;;
72891;SDS011;61032;50.782;6.818;2024-02-15T01:21:28;2.25;;;0.70;;
72891;SDS011;61032;50.782;6.818;2024-02-15T01:22:28;1.85;;;0.90;;
72891;SDS011;61032;50.782;6.818;2024-02-15T01:23:29;2.22;;;0.82;;
72891;SDS011;61032;50.782;6.818;2024-02-15T01:24:29;3.78;;;1.05;;
72891;SDS011;61032;50.782;6.818;2024-02-15T01:25:30;2.88;;;0.98;;
72891;SDS011;61032;50.782;6.818;2024-02-15T01:26:30;1.85;;;0.77;;
72891;SDS011;61032;50.782;6.818;2024-02-15T01:27:31;1.50;;;0.80;;
72891;SDS011;61032;50.782;6.818;2024-02-15T01:28:31;1.77;;;0.80;;
72891;SDS011;61032;50.782;6.818;2024-02-15T01:29:32;1.42;;;0.60;;
72891;SDS011;61032;50.782;6.818;2024-02-15T01:30:32;1.25;;;0.70;;
72891;SDS011;61032;50.782;6.818;2024-02-15T01:31:33;2.58;;;1.42;;
72891;SDS011;61032;50.782;6.818;2024-02-15T01:32:33;1.02;;;0.60;;
72891;SDS011;61032;50.782;6.818;2024-02-15T01:33:34;2.03;;;0.73;;
72891;SDS011;61032;50.782;6.818;2024-02-15T01:34:34;3.40;;;1.02;;
72891;SDS011;61032;50.782;6.818;2024-02-15T01:35:35;1.55;;;0.77;;
72891;SDS011;61032;50.782;6.818;2024-02-15T01:36:35;1.42;;;0.80;;
72891;SDS011;61032;50.782;6.818;2024-02-15T01:37:35;1.15;;;0.60;;
72891;SDS011;61032;50.782;6.818;2024-02-15T01:38:37;1.50;;;0.80;;
72891;SDS011;61032;50.782;6.818;2024-02-15T01:39:37;2.95;;;0.80;;
72891;SDS011;61032;50.782;6.818;2024-02-15T01:40:37;1.20;;;0.60;;
72891;SDS011;61032;50.782;6.818;2024-02-15T01:41:38;2.30;;;0.80;;
72891;SDS011;61032;50.782;6.818;2024-02-15T01:42:38;2.60;;;0.88;;
72891;SDS011;61032;50.782;6.818;2024-02-15T01:43:45;2.20;;;0.73;;
72891;SDS011;61032;50.782;6.818;2024-02-15T01:44:47;3.55;;;1.00;;
72891;SDS011;61032;50.782;6.818;2024-02-15T01:45:49;0.95;;;0.70;;
72891;SDS011;61032;50.782;6.818;2024-02-15T01:46:50;1.75;;;0.80;;
72891;SDS011;61032;50.782;6.818;2024-02-15T01:47:54;1.67;;;0.70;;
72891;SDS011;61032;50.782;6.818;2024-02-15T01:48:56;1.55;;;0.60;;
72891;SDS011;61032;50.782;6.818;2024-02-15T01:49:56;2.80;;;0.80;;
72891;SDS011;61032;50.782;6.818;2024-02-15T01:50:57;2.33;;;0.68;;
72891;SDS011;61032;50.782;6.818;2024-02-15T01:51:58;4.60;;;0.73;;
72891;SDS011;61032;50.782;6.818;2024-02-15T01:53:03;2.35;;;0.90;;
72891;SDS011;61032;50.782;6.818;2024-02-15T01:54:06;1.25;;;0.68;;
72891;SDS011;61032;50.782;6.818;2024-02-15T01:55:07;2.35;;;0.80;;
72891;SDS011;61032;50.782;6.818;2024-02-15T01:56:08;2.05;;;0.93;;
72891;SDS011;61032;50.782;6.818;2024-02-15T01:58:10;1.35;;;0.65;;
72891;SDS011;61032;50.782;6.818;2024-02-15T01:59:11;3.65;;;0.73;;
72891;SDS011;61032;50.782;6.818;2024-02-15T02:00:17;1.35;;;0.60;;
72891;SDS011;61032;50.782;6.818;2024-02-15T02:01:19;1.42;;;0.70;;
72891;SDS011;61032;50.782;6.818;2024-02-15T02:02:21;1.55;;;0.70;;
72891;SDS011;61032;50.782;6.818;2024-02-15T02:03:25;1.30;;;0.68;;
72891;SDS011;61032;50.782;6.818;2024-02-15T02:04:25;1.80;;;0.80;;
72891;SDS011;61032;50.782;6.818;2024-02-15T02:05:26;1.45;;;0.60;;
72891;SDS011;61032;50.782;6.818;2024-02-15T02:06:28;1.25;;;0.40;;
72891;SDS011;61032;50.782;6.818;2024-02-15T02:07:30;1.77;;;0.70;;
72891;SDS011;61032;50.782;6.818;2024-02-15T02:08:31;1.60;;;0.73;;
72891;SDS011;61032;50.782;6.818;2024-02-15T02:09:31;1.67;;;0.60;;
72891;SDS011;61032;50.782;6.818;2024-02-15T02:10:31;2.17;;;0.80;;
72891;SDS011;61032;50.782;6.818;2024-02-15T02:11:32;1.08;;;0.60;;
72891;SDS011;61032;50.782;6.818;2024-02-15T02:12:33;1.67;;;0.68;;
72891;SDS011;61032;50.782;6.818;2024-02-15T02:13:33;2.53;;;1.00;;
72891;SDS011;61032;50.782;6.818;2024-02-15T02:14:35;1.60;;;0.80;;
72891;SDS011;61032;50.782;6.818;2024-02-15T02:15:35;1.80;;;0.52;;
72891;SDS011;61032;50.782;6.818;2024-02-15T02:16:37;1.30;;;0.47;;
72891;SDS011;61032;50.782;6.818;2024-02-15T02:17:39;1.67;;;1.08;;
72891;SDS011;61032;50.782;6.818;2024-02-15T02:18:40;2.63;;;0.68;;
72891;SDS011;61032;50.782;6.818;2024-02-15T02:19:41;2.25;;;0.40;;
72891;SDS011;61032;50.782;6.818;2024-02-15T02:20:43;0.95;;;0.50;;
72891;SDS011;61032;50.782;6.818;2024-02-15T02:21:43;3.17;;;0.70;;
72891;SDS011;61032;50.782;6.818;2024-02-15T02:22:45;1.15;;;0.60;;
72891;SDS011;61032;50.782;6.818;2024-02-15T02:23:48;1.10;;;0.45;;
72891;SDS011;61032;50.782;6.818;2024-02-15T02:25:03;3.17;;;0.50;;
72891;SDS011;61032;50.782;6.818;2024-02-15T02:26:06;1.25;;;0.50;;
72891;SDS011;61032;50.782;6.818;2024-02-15T02:27:10;1.52;;;0.60;;
72891;SDS011;61032;50.782;6.818;2024-02-15T02:28:12;7.55;;;1.17;;
72891;SDS011;61032;50.782;6.818;2024-02-15T02:29:14;1.85;;;0.38;;
72891;SDS011;61032;50.782;6.818;2024-02-15T02:30:16;2.72;;;0.65;;
72891;SDS011;61032;50.782;6.818;2024-02-15T02:31:20;0.90;;;0.57;;
72891;SDS011;61032;50.782;6.818;2024-02-15T02:32:21;1.77;;;0.60;;
72891;SDS011;61032;50.782;6.818;2024-02-15T02:33:22;2.17;;;0.50;;
72891;SDS011;61032;50.782;6.818;2024-02-15T02:34:24;1.48;;;0.60;;
72891;SDS011;61032;50.782;6.818;2024-02-15T02:35:25;1.77;;;0.40;;
72891;SDS011;61032;50.782;6.818;2024-02-15T02:36:27;1.92;;;0.60;;
72891;SDS011;61032;50.782;6.818;2024-02-15T02:37:29;1.38;;;0.50;;
72891;SDS011;61032;50.782;6.818;2024-02-15T02:38:29;1.48;;;0.80;;
72891;SDS011;61032;50.782;6.818;2024-02-15T02:39:29;1.00;;;0.40;;
72891;SDS011;61032;50.782;6.818;2024-02-15T02:40:31;0.98;;;0.40;;
72891;SDS011;61032;50.782;6.818;2024-02-15T02:41:31;2.08;;;0.50;;
72891;SDS011;61032;50.782;6.818;2024-02-15T02:42:32;1.45;;;0.60;;
72891;SDS011;61032;50.782;6.818;2024-02-15T02:43:32;1.75;;;0.80;;
72891;SDS011;61032;50.782;6.818;2024-02-15T02:44:33;2.35;;;0.68;;
72891;SDS011;61032;50.782;6.818;2024-02-15T02:45:33;1.77;;;0.47;;
72891;SDS011;61032;50.782;6.818;2024-02-15T02:46:34;2.95;;;0.63;;
72891;SDS011;61032;50.782;6.818;2024-02-15T02:47:34;1.15;;;0.52;;
72891;SDS011;61032;50.782;6.818;2024-02-15T02:48:34;2.53;;;0.60;;
72891;SDS011;61032;50.782;6.818;2024-02-15T02:49:35;1.42;;;0.70;;
72891;SDS011;61032;50.782;6.818;2024-02-15T02:50:35;1.33;;;0.52;;
72891;SDS011;61032;50.782;6.818;2024-02-15T02:51:36;1.40;;;0.60;;
72891;SDS011;61032;50.782;6.818;2024-02-15T02:52:36;1.92;;;0.30;;
72891;SDS011;61032;50.782;6.818;2024-02-15T02:53:39;2.33;;;0.68;;
72891;SDS011;61032;50.782;6.818;2024-02-15T02:54:39;1.85;;;0.50;;
72891;SDS011;61032;50.782;6.818;2024-02-15T02:55:41;1.33;;;0.60;;
72891;SDS011;61032;50.782;6.818;2024-02-15T02:56:42;2.40;;;0.80;;
72891;SDS011;61032;50.782;6.818;2024-02-15T02:57:45;1.83;;;0.60;;
72891;SDS011;61032;50.782;6.818;2024-02-15T02:58:45;1.40;;;0.88;;
72891;SDS011;61032;50.782;6.818;2024-02-15T02:59:45;1.85;;;0.50;;
72891;SDS011;61032;50.782;6.818;2024-02-15T03:00:47;0.85;;;0.63;;
72891;SDS011;61032;50.782;6.818;2024-02-15T03:01:48;2.35;;;0.65;;
72891;SDS011;61032;50.782;6.818;2024-02-15T03:02:48;0.88;;;0.50;;
72891;SDS011;61032;50.782;6.818;2024-02-15T03:03:48;1.20;;;0.38;;
72891;SDS011;61032;50.782;6.818;2024-02-15T03:04:49;1.48;;;0.40;;
72891;SDS011;61032;50.782;6.818;2024-02-15T03:05:49;1.88;;;0.55;;
72891;SDS011;61032;50.782;6.818;2024-02-15T03:06:50;1.80;;;0.60;;
72891;SDS011;61032;50.782;6.818;2024-02-15T03:07:51;1.80;;;0.63;;
72891;SDS011;61032;50.782;6.818;2024-02-15T03:08:52;1.05;;;0.55;;
72891;SDS011;61032;50.782;6.818;2024-02-15T03:09:54;2.25;;;0.60;;
72891;SDS011;61032;50.782;6.818;2024-02-15T03:10:54;2.75;;;0.70;;
72891;SDS011;61032;50.782;6.818;2024-02-15T03:11:55;2.67;;;0.40;;
72891;SDS011;61032;50.782;6.818;2024-02-15T03:12:56;1.73;;;0.40;;
72891;SDS011;61032;50.782;6.818;2024-02-15T03:13:57;1.83;;;0.57;;
72891;SDS011;61032;50.782;6.818;2024-02-15T03:14:59;3.28;;;0.55;;
72891;SDS011;61032;50.782;6.818;2024-02-15T03:15:59;3.33;;;0.50;;
72891;SDS011;61032;50.782;6.818;2024-02-15T03:17:00;0.75;;;0.40;;
72891;SDS011;61032;50.782;6.818;2024-02-15T03:18:03;0.90;;;0.43;;
72891;SDS011;61032;50.782;6.818;2024-02-15T03:19:07;2.10;;;0.63;;
72891;SDS011;61032;50.782;6.818;2024-02-15T03:20:09;1.02;;;0.55;;
72891;SDS011;61032;50.782;6.818;2024-02-15T03:21:20;2.08;;;0.60;;
72891;SDS011;61032;50.782;6.818;2024-02-15T03:22:20;2.13;;;0.57;;
72891;SDS011;61032;50.782;6.818;2024-02-15T03:23:24;2.15;;;0.60;;
72891;SDS011;61032;50.782;6.818;2024-02-15T03:24:24;1.00;;;0.70;;
72891;SDS011;61032;50.782;6.818;2024-02-15T03:25:25;1.08;;;0.65;;
72891;SDS011;61032;50.782;6.818;2024-02-15T03:26:30;0.82;;;0.40;;
72891;SDS011;61032;50.782;6.818;2024-02-15T03:27:38;0.90;;;0.40;;
72891;SDS011;61032;50.782;6.818;2024-02-15T03:28:38;1.25;;;0.63;;
72891;SDS011;61032;50.782;6.818;2024-02-15T03:29:39;1.80;;;0.60;;
72891;SDS011;61032;50.782;6.818;2024-02-15T03:30:39;2.00;;;0.50;;
72891;SDS011;61032;50.782;6.818;2024-02-15T03:31:39;1.73;;;0.45;;
72891;SDS011;61032;50.782;6.818;2024-02-15T03:32:40;3.97;;;0.50;;
72891;SDS011;61032;50.782;6.818;2024-02-15T03:33:40;0.80;;;0.50;;
72891;SDS011;61032;50.782;6.818;2024-02-15T03:34:41;1.13;;;0.60;;
72891;SDS011;61032;50.782;6.818;2024-02-15T03:35:42;1.88;;;0.52;;
72891;SDS011;61032;50.782;6.818;2024-02-15T03:36:43;1.67;;;0.80;;
72891;SDS011;61032;50.782;6.818;2024-02-15T03:37:43;1.80;;;0.60;;
72891;SDS011;61032;50.782;6.818;2024-02-15T03:38:43;1.42;;;0.70;;
72891;SDS011;61032;50.782;6.818;2024-02-15T03:39:44;2.63;;;0.70;;
72891;SDS011;61032;50.782;6.818;2024-02-15T03:40:45;1.55;;;0.70;;
72891;SDS011;61032;50.782;6.818;2024-02-15T03:41:45;1.05;;;0.45;;
72891;SDS011;61032;50.782;6.818;2024-02-15T03:42:46;2.38;;;0.68;;
72891;SDS011;61032;50.782;6.818;2024-02-15T03:43:46;2.20;;;0.80;;
72891;SDS011;61032;50.782;6.818;2024-02-15T03:44:47;0.93;;;0.60;;
72891;SDS011;61032;50.782;6.818;2024-02-15T03:45:47;1.48;;;0.80;;
72891;SDS011;61032;50.782;6.818;2024-02-15T03:46:48;1.40;;;0.90;;
72891;SDS011;61032;50.782;6.818;2024-02-15T03:47:54;2.80;;;0.85;;
72891;SDS011;61032;50.782;6.818;2024-02-15T03:48:57;2.20;;;0.95;;
72891;SDS011;61032;50.782;6.818;2024-02-15T03:49:59;3.28;;;1.08;;
72891;SDS011;61032;50.782;6.818;2024-02-15T03:50:59;1.30;;;0.95;;
72891;SDS011;61032;50.782;6.818;2024-02-15T03:52:01;1.40;;;0.80;;
72891;SDS011;61032;50.782;6.818;2024-02-15T03:53:02;2.63;;;1.00;;
72891;SDS011;61032;50.782;6.818;2024-02-15T03:54:02;1.95;;;0.68;;
72891;SDS011;61032;50.782;6.818;2024-02-15T03:55:04;1.27;;;0.70;;
72891;SDS011;61032;50.782;6.818;2024-02-15T03:56:07;1.73;;;0.88;;
72891;SDS011;61032;50.782;6.818;2024-02-15T03:57:08;2.20;;;0.77;;
72891;SDS011;61032;50.782;6.818;2024-02-15T03:58:11;1.13;;;0.65;;
72891;SDS011;61032;50.782;6.818;2024-02-15T03:59:12;1.67;;;0.88;;
72891;SDS011;61032;50.782;6.818;2024-02-15T04:00:13;1.38;;;0.73;;
72891;SDS011;61032;50.782;6.818;2024-02-15T04:01:20;1.33;;;0.80;;
72891;SDS011;61032;50.782;6.818;2024-02-15T04:02:20;2.85;;;0.90;;
72891;SDS011;61032;50.782;6.818;2024-02-15T04:03:23;2.60;;;1.10;;
72891;SDS011;61032;50.782;6.818;2024-02-15T04:04:23;1.45;;;0.63;;
72891;SDS011;61032;50.782;6.818;2024-02-15T04:05:24;4.00;;;0.77;;
72891;SDS011;61032;50.782;6.818;2024-02-15T04:06:24;3.53;;;1.17;;
72891;SDS011;61032;50.782;6.818;2024-02-15T04:07:25;1.90;;;0.77;;
72891;SDS011;61032;50.782;6.818;2024-02-15T04:08:26;1.25;;;1.00;;
72891;SDS011;61032;50.782;6.818;2024-02-15T04:09:27;5.15;;;0.93;;
72891;SDS011;61032;50.782;6.818;2024-02-15T04:10:27;4.10;;;1.05;;
72891;SDS011;61032;50.782;6.818;2024-02-15T04:11:28;4.47;;;1.00;;
72891;SDS011;61032;50.782;6.818;2024-02-15T04:12:29;3.80;;;1.10;;
72891;SDS011;61032;50.782;6.818;2024-02-15T04:13:29;1.45;;;1.02;;
72891;SDS011;61032;50.782;6.818;2024-02-15T04:14:29;2.38;;;0.82;;
72891;SDS011;61032;50.782;6.818;2024-02-15T04:15:32;2.55;;;1.15;;
72891;SDS011;61032;50.782;6.818;2024-02-15T04:16:33;1.35;;;0.73;;
72891;SDS011;61032;50.782;6.818;2024-02-15T04:17:35;2.67;;;0.95;;
72891;SDS011;61032;50.782;6.818;2024-02-15T04:18:36;4.53;;;1.15;;
72891;SDS011;61032;50.782;6.818;2024-02-15T04:19:37;3.17;;;0.93;;
72891;SDS011;61032;50.782;6.818;2024-02-15T04:20:38;3.22;;;0.88;;
72891;SDS011;61032;50.782;6.818;2024-02-15T04:21:38;2.80;;;0.82;;
72891;SDS011;61032;50.782;6.818;2024-02-15T04:22:40;1.83;;;1.10;;
72891;SDS011;61032;50.782;6.818;2024-02-15T04:23:42;2.15;;;0.80;;
72891;SDS011;61032;50.782;6.818;2024-02-15T04:24:44;2.25;;;1.00;;
72891;SDS011;61032;50.782;6.818;2024-02-15T04:25:45;2.13;;;1.00;;
72891;SDS011;61032;50.782;6.818;2024-02-15T04:26:50;3.25;;;0.98;;
72891;SDS011;61032;50.782;6.818;2024-02-15T04:27:51;2.38;;;0.80;;
72891;SDS011;61032;50.782;6.818;2024-02-15T04:28:52;3.83;;;1.02;;
72891;SDS011;61032;50.782;6.818;2024-02-15T04:29:53;4.22;;;1.17;;
72891;SDS011;61032;50.782;6.818;2024-02-15T04:30:54;3.58;;;1.20;;
72891;SDS011;61032;50.782;6.818;2024-02-15T04:31:55;4.88;;;1.23;;
72891;SDS011;61032;50.782;6.818;2024-02-15T04:32:58;2.30;;;1.25;;
72891;SDS011;61032;50.782;6.818;2024-02-15T04:33:58;3.60;;;1.08;;
72891;SDS011;61032;50.782;6.818;2024-02-15T04:34:59;2.63;;;1.00;;
72891;SDS011;61032;50.782;6.818;2024-02-15T04:37:04;1.67;;;1.35;;
72891;SDS011;61032;50.782;6.818;2024-02-15T04:38:08;4.47;;;1.23;;
72891;SDS011;61032;50.782;6.818;2024-02-15T04:39:09;3.10;;;1.05;;
72891;SDS011;61032;50.782;6.818;2024-02-15T04:40:12;1.58;;;0.77;;
72891;SDS011;61032;50.782;6.818;2024-02-15T04:41:13;3.00;;;0.90;;
72891;SDS011;61032;50.782;6.818;2024-02-15T04:42:22;2.17;;;0.80;;
72891;SDS011;61032;50.782;6.818;2024-02-15T04:43:26;4.50;;;0.73;;
72891;SDS011;61032;50.782;6.818;2024-02-15T04:44:27;4.55;;;1.40;;
72891;SDS011;61032;50.782;6.818;2024-02-15T04:45:27;2.53;;;0.95;;
72891;SDS011;61032;50.782;6.818;2024-02-15T04:46:28;3.58;;;1.15;;
72891;SDS011;61032;50.782;6.818;2024-02-15T04:47:29;3.33;;;0.88;;
72891;SDS011;61032;50.782;6.818;2024-02-15T04:48:30;4.07;;;1.30;;
72891;SDS011;61032;50.782;6.818;2024-02-15T04:49:30;2.28;;;1.00;;
72891;SDS011;61032;50.782;6.818;2024-02-15T04:50:31;5.10;;;0.90;;
72891;SDS011;61032;50.782;6.818;2024-02-15T04:51:31;2.92;;;1.23;;
72891;SDS011;61032;50.782;6.818;2024-02-15T04:52:32;3.17;;;1.08;;
72891;SDS011;61032;50.782;6.818;2024-02-15T04:53:33;3.00;;;1.17;;
72891;SDS011;61032;50.782;6.818;2024-02-15T04:54:33;5.18;;;1.52;;
72891;SDS011;61032;50.782;6.818;2024-02-15T04:55:33;3.63;;;1.00;;
72891;SDS011;61032;50.782;6.818;2024-02-15T04:56:35;4.28;;;1.30;;
72891;SDS011;61032;50.782;6.818;2024-02-15T04:57:36;3.85;;;1.13;;
72891;SDS011;61032;50.782;6.818;2024-02-15T04:58:37;2.72;;;1.10;;
72891;SDS011;61032;50.782;6.818;2024-02-15T04:59:38;3.25;;;1.17;;
72891;SDS011;61032;50.782;6.818;2024-02-15T05:00:39;2.55;;;1.10;;
72891;SDS011;61032;50.782;6.818;2024-02-15T05:01:39;4.25;;;1.10;;
72891;SDS011;61032;50.782;6.818;2024-02-15T05:02:42;2.72;;;1.17;;
72891;SDS011;61032;50.782;6.818;2024-02-15T05:04:45;2.42;;;0.73;;
72891;SDS011;61032;50.782;6.818;2024-02-15T05:05:45;6.50;;;1.55;;
72891;SDS011;61032;50.782;6.818;2024-02-15T05:06:46;1.73;;;0.70;;
72891;SDS011;61032;50.782;6.818;2024-02-15T05:07:46;3.53;;;1.05;;
72891;SDS011;61032;50.782;6.818;2024-02-15T05:08:49;2.05;;;0.98;;
72891;SDS011;61032;50.782;6.818;2024-02-15T05:09:49;2.38;;;1.02;;
72891;SDS011;61032;50.782;6.818;2024-02-15T05:10:52;4.85;;;0.82;;
72891;SDS011;61032;50.782;6.818;2024-02-15T05:11:59;4.90;;;1.10;;
72891;SDS011;61032;50.782;6.818;2024-02-15T05:13:02;3.92;;;0.70;;
72891;SDS011;61032;50.782;6.818;2024-02-15T05:14:02;1.83;;;0.73;;
72891;SDS011;61032;50.782;6.818;2024-02-15T05:15:05;3.67;;;1.00;;
72891;SDS011;61032;50.782;6.818;2024-02-15T05:16:12;4.68;;;1.15;;
72891;SDS011;61032;50.782;6.818;2024-02-15T05:17:12;4.35;;;1.00;;
72891;SDS011;61032;50.782;6.818;2024-02-15T05:18:13;5.97;;;0.90;;
72891;SDS011;61032;50.782;6.818;2024-02-15T05:19:16;2.72;;;1.10;;
72891;SDS011;61032;50.782;6.818;2024-02-15T05:20:17;3.10;;;0.85;;
72891;SDS011;61032;50.782;6.818;2024-02-15T05:21:20;1.55;;;0.90;;
72891;SDS011;61032;50.782;6.818;2024-02-15T05:22:20;4.85;;;2.30;;
72891;SDS011;61032;50.782;6.818;2024-02-15T05:23:22;2.70;;;1.08;;
72891;SDS011;61032;50.782;6.818;2024-02-15T05:24:22;2.40;;;1.00;;
72891;SDS011;61032;50.782;6.818;2024-02-15T05:25:23;4.25;;;1.00;;
72891;SDS011;61032;50.782;6.818;2024-02-15T05:26:23;5.20;;;1.20;;
72891;SDS011;61032;50.782;6.818;2024-02-15T05:27:23;5.70;;;1.35;;
72891;SDS011;61032;50.782;6.818;2024-02-15T05:28:24;4.70;;;1.23;;
72891;SDS011;61032;50.782;6.818;2024-02-15T05:29:26;2.67;;;1.50;;
72891;SDS011;61032;50.782;6.818;2024-02-15T05:30:28;3.83;;;1.40;;
72891;SDS011;61032;50.782;6.818;2024-02-15T05:31:29;5.75;;;2.10;;
72891;SDS011;61032;50.782;6.818;2024-02-15T05:32:30;8.70;;;2.72;;
72891;SDS011;61032;50.782;6.818;2024-02-15T05:33:30;9.55;;;2.50;;
72891;SDS011;61032;50.782;6.818;2024-02-15T05:34:32;7.07;;;2.28;;
72891;SDS011;61032;50.782;6.818;2024-02-15T05:35:33;8.57;;;2.10;;
72891;SDS011;61032;50.782;6.818;2024-02-15T05:36:36;5.75;;;1.77;;
72891;SDS011;61032;50.782;6.818;2024-02-15T05:37:38;3.38;;;1.40;;
72891;SDS011;61032;50.782;6.818;2024-02-15T05:38:41;5.18;;;1.55;;
72891;SDS011;61032;50.782;6.818;2024-02-15T05:39:45;2.28;;;1.25;;
72891;SDS011;61032;50.782;6.818;2024-02-15T05:40:45;4.65;;;1.45;;
72891;SDS011;61032;50.782;6.818;2024-02-15T05:41:46;3.60;;;1.40;;
72891;SDS011;61032;50.782;6.818;2024-02-15T05:42:46;4.35;;;1.30;;
72891;SDS011;61032;50.782;6.818;2024-02-15T05:43:47;6.00;;;1.02;;
72891;SDS011;61032;50.782;6.818;2024-02-15T05:44:53;4.28;;;1.52;;
72891;SDS011;61032;50.782;6.818;2024-02-15T05:45:54;3.40;;;1.17;;
72891;SDS011;61032;50.782;6.818;2024-02-15T05:46:55;3.10;;;1.25;;
72891;SDS011;61032;50.782;6.818;2024-02-15T05:47:56;2.97;;;1.50;;
72891;SDS011;61032;50.782;6.818;2024-02-15T05:48:56;6.22;;;1.30;;
72891;SDS011;61032;50.782;6.818;2024-02-15T05:49:57;2.95;;;1.20;;
72891;SDS011;61032;50.782;6.818;2024-02-15T05:50:57;2.92;;;1.27;;
72891;SDS011;61032;50.782;6.818;2024-02-15T05:51:59;2.47;;;1.17;;
72891;SDS011;61032;50.782;6.818;2024-02-15T05:52:59;3.33;;;1.27;;
72891;SDS011;61032;50.782;6.818;2024-02-15T05:54:01;3.53;;;1.25;;
72891;SDS011;61032;50.782;6.818;2024-02-15T05:55:02;4.88;;;1.33;;
72891;SDS011;61032;50.782;6.818;2024-02-15T05:56:03;4.18;;;1.27;;
72891;SDS011;61032;50.782;6.818;2024-02-15T05:57:07;3.75;;;1.13;;
72891;SDS011;61032;50.782;6.818;2024-02-15T05:58:08;3.78;;;1.20;;
72891;SDS011;61032;50.782;6.818;2024-02-15T05:59:10;4.47;;;1.00;;
72891;SDS011;61032;50.782;6.818;2024-02-15T06:00:11;1.80;;;0.82;;
72891;SDS011;61032;50.782;6.818;2024-02-15T06:01:12;4.97;;;1.52;;
72891;SDS011;61032;50.782;6.818;2024-02-15T06:02:14;2.35;;;0.90;;
72891;SDS011;61032;50.782;6.818;2024-02-15T06:03:17;1.73;;;0.90;;
72891;SDS011;61032;50.782;6.818;2024-02-15T06:04:18;2.25;;;0.95;;
72891;SDS011;61032;50.782;6.818;2024-02-15T06:05:19;2.47;;;1.00;;
72891;SDS011;61032;50.782;6.818;2024-02-15T06:06:19;2.20;;;1.15;;
72891;SDS011;61032;50.782;6.818;2024-02-15T06:07:20;2.58;;;1.02;;
72891;SDS011;61032;50.782;6.818;2024-02-15T06:08:20;3.65;;;1.08;;
72891;SDS011;61032;50.782;6.818;2024-02-15T06:09:23;3.97;;;1.20;;
72891;SDS011;61032;50.782;6.818;2024-02-15T06:10:26;5.63;;;1.05;;
72891;SDS011;61032;50.782;6.818;2024-02-15T06:11:27;2.85;;;0.93;;
72891;SDS011;61032;50.782;6.818;2024-02-15T06:12:27;3.65;;;1.20;;
72891;SDS011;61032;50.782;6.818;2024-02-15T06:13:27;4.43;;;1.08;;